Time;durP1;ratioP1;P1;durP2;ratioP2;P2;SDS_P1;SDS_P2;PMS_P1;PMS_P2;Temp;Humidity;BMP_temperature;BMP_pressure;BME280_temperature;BME280_humidity;BME280_pressure;Samples;Min_cycle;Max_cycle;Signal;HPM_P1;HPM_P2
2022/05/01 00:02:17;;;;;;;6.78;4.80;;;;;;;7.38;100.00;97139.06;4961173;28;20573;-73
2022/05/01 00:04:43;;;;;;;9.68;4.95;;;;;;;7.44;100.00;97135.56;4964748;28;20041;-73
2022/05/01 00:07:12;;;;;;;8.13;4.50;;;;;;;7.65;100.00;97132.59;4961472;28;20089;-72
2022/05/01 00:09:39;;;;;;;8.50;4.70;;;;;;;7.67;100.00;97124.38;4961564;28;20244;-72
2022/05/01 00:12:07;;;;;;;8.70;5.35;;;;;;;7.61;100.00;97122.56;4975299;28;20413;-73
2022/05/01 00:14:33;;;;;;;9.73;5.28;;;;;;;7.53;100.00;97121.78;4961878;28;20494;-73
2022/05/01 00:17:02;;;;;;;11.52;5.50;;;;;;;7.57;100.00;97119.53;4962557;28;20034;-74
2022/05/01 00:19:27;;;;;;;11.50;5.22;;;;;;;7.65;100.00;97113.13;4963875;28;20038;-74
2022/05/01 00:21:55;;;;;;;10.52;5.30;;;;;;;7.63;100.00;97112.53;4962083;28;20077;-74
2022/05/01 00:24:22;;;;;;;7.72;5.05;;;;;;;7.54;100.00;97117.25;4963840;28;20121;-73
2022/05/01 00:26:48;;;;;;;11.73;5.68;;;;;;;7.64;100.00;97114.16;4963923;28;20705;-72
2022/05/01 00:29:13;;;;;;;11.23;5.05;;;;;;;7.55;100.00;97116.25;4962473;28;20584;-73
2022/05/01 00:31:39;;;;;;;9.02;5.05;;;;;;;7.67;100.00;97119.03;4961049;28;20038;-73
2022/05/01 00:36:50;;;;;;;11.48;5.22;;;;;;;7.83;100.00;97116.69;4963510;28;20043;-73
2022/05/01 00:39:15;;;;;;;10.30;5.25;;;;;;;7.67;100.00;97119.03;4961681;28;20406;-72
2022/05/01 00:41:41;;;;;;;10.48;5.60;;;;;;;7.66;100.00;97122.75;4963392;28;20050;-73
2022/05/01 00:44:16;;;;;;;9.88;5.25;;;;;;;7.73;100.00;97115.53;4962590;28;20039;-72
2022/05/01 00:46:47;;;;;;;7.50;5.05;;;;;;;7.67;100.00;97116.38;4963545;28;20089;-72
2022/05/01 00:49:21;;;;;;;8.23;5.63;;;;;;;7.73;100.00;97103.03;4960687;28;20065;-72
2022/05/01 00:51:51;;;;;;;10.18;5.63;;;;;;;7.68;100.00;97113.50;4963424;28;20047;-74
2022/05/01 00:54:18;;;;;;;7.85;5.13;;;;;;;7.66;100.00;97110.25;4963037;28;20117;-72
2022/05/01 00:56:47;;;;;;;8.82;4.90;;;;;;;7.57;100.00;97106.19;4962562;28;20094;-72
2022/05/01 00:59:13;;;;;;;12.50;5.80;;;;;;;7.61;100.00;97098.59;4962297;28;20035;-73
2022/05/01 01:01:43;;;;;;;10.80;5.78;;;;;;;7.70;100.00;97103.44;4962704;28;20181;-76
2022/05/01 01:04:10;;;;;;;10.60;5.40;;;;;;;7.80;100.00;97106.47;4962907;28;20058;-73
2022/05/01 01:06:39;;;;;;;10.68;5.45;;;;;;;7.72;100.00;97089.94;4960590;28;20039;-73
2022/05/01 01:09:05;;;;;;;8.60;5.40;;;;;;;7.80;100.00;97110.97;4961840;28;20043;-73
2022/05/01 01:11:31;;;;;;;12.80;5.90;;;;;;;7.91;100.00;97104.94;4961904;28;20038;-73
2022/05/01 01:13:58;;;;;;;9.82;5.00;;;;;;;7.99;100.00;97101.22;4962665;28;20043;-73
2022/05/01 01:16:25;;;;;;;8.75;5.13;;;;;;;7.95;100.00;97094.69;4960684;28;20030;-73
2022/05/01 01:18:52;;;;;;;9.30;5.30;;;;;;;8.04;100.00;97096.06;4959922;28;20054;-73
2022/05/01 01:21:18;;;;;;;10.48;5.13;;;;;;;8.10;100.00;97104.00;4961045;28;20038;-73
2022/05/01 01:23:45;;;;;;;9.10;5.13;;;;;;;8.12;100.00;97095.78;4961051;28;20117;-73
2022/05/01 01:26:13;;;;;;;9.35;5.22;;;;;;;8.04;100.00;97104.06;4960591;28;20042;-74
2022/05/01 01:28:40;;;;;;;12.32;5.43;;;;;;;7.84;100.00;97098.84;4956986;28;20155;-72
2022/05/01 01:33:56;;;;;;;7.63;5.07;;;;;;;7.68;100.00;97104.69;4960489;28;20042;-72
2022/05/01 01:36:24;;;;;;;13.73;5.30;;;;;;;7.74;100.00;97103.84;4960485;28;20046;-72
2022/05/01 01:38:50;;;;;;;11.40;5.38;;;;;;;7.81;100.00;97109.94;4962207;28;20062;-73
2022/05/01 01:41:21;;;;;;;11.35;5.32;;;;;;;7.77;100.00;97106.06;4962575;28;20567;-73
2022/05/01 01:43:48;;;;;;;9.40;4.90;;;;;;;7.84;100.00;97112.16;4960927;28;20475;-73
2022/05/01 01:46:14;;;;;;;9.32;5.03;;;;;;;7.68;100.00;97113.50;4961079;28;20065;-72
2022/05/01 01:48:40;;;;;;;9.20;5.57;;;;;;;7.63;100.00;97112.53;4961310;28;20466;-72
2022/05/01 01:51:08;;;;;;;8.77;5.03;;;;;;;7.69;100.00;97106.31;4960512;28;20050;-73
2022/05/01 01:53:35;;;;;;;10.20;4.97;;;;;;;7.75;100.00;97116.13;4960641;28;20034;-73
2022/05/01 01:56:02;;;;;;;9.93;5.53;;;;;;;7.80;100.00;97111.78;4976298;28;20039;-72
2022/05/01 01:58:28;;;;;;;10.55;5.72;;;;;;;7.81;100.00;97115.28;4962491;28;20046;-73
2022/05/01 02:00:55;;;;;;;10.18;5.13;;;;;;;7.81;100.00;97112.63;4959645;28;20121;-74
2022/05/01 02:03:20;;;;;;;9.75;4.95;;;;;;;7.79;100.00;97118.16;4961734;28;20278;-73
2022/05/01 02:05:48;;;;;;;8.70;5.40;;;;;;;7.75;100.00;97114.28;4961544;28;20051;-73
2022/05/01 02:08:14;;;;;;;7.57;4.88;;;;;;;7.75;100.00;97116.94;4974364;28;20053;-74
2022/05/01 02:10:40;;;;;;;10.98;5.00;;;;;;;7.73;100.00;97118.19;4962994;28;20129;-74
2022/05/01 02:13:06;;;;;;;10.95;5.32;;;;;;;7.71;100.00;97110.44;4960029;28;20513;-74
2022/05/01 02:15:33;;;;;;;10.60;5.43;;;;;;;7.62;100.00;97111.69;4976037;28;20035;-73
2022/05/01 02:18:00;;;;;;;7.30;4.82;;;;;;;7.57;100.00;97103.53;4960951;28;20713;-72
2022/05/01 02:20:28;;;;;;;9.23;5.40;;;;;;;7.54;100.00;97104.75;4960955;28;20192;-72
2022/05/01 02:22:54;;;;;;;8.65;5.13;;;;;;;7.58;100.00;97104.34;4960263;28;20587;-72
2022/05/01 02:25:23;;;;;;;7.75;5.20;;;;;;;7.60;100.00;97108.44;4961145;28;20031;-73
2022/05/01 02:27:49;;;;;;;8.43;5.50;;;;;;;7.62;100.00;97102.88;4959605;28;20046;-73
2022/05/01 02:30:14;;;;;;;6.95;4.85;;;;;;;7.63;100.00;97108.00;4973596;28;20422;-73
2022/05/01 02:32:41;;;;;;;8.30;4.75;;;;;;;7.63;100.00;97108.00;4960136;28;20138;-73
2022/05/01 02:35:09;;;;;;;9.43;5.25;;;;;;;7.63;100.00;97107.19;4958999;28;20077;-73
2022/05/01 02:37:34;;;;;;;12.43;5.15;;;;;;;7.63;100.00;97099.22;4961313;28;20062;-73
2022/05/01 02:40:01;;;;;;;9.45;5.28;;;;;;;7.64;100.00;97095.50;4959951;28;20047;-74
2022/05/01 02:42:26;;;;;;;9.55;5.05;;;;;;;7.62;100.00;97093.03;4959873;28;20466;-74
2022/05/01 02:44:51;;;;;;;8.57;4.93;;;;;;;7.58;100.00;97091.03;4960368;28;20031;-73
2022/05/01 02:47:17;;;;;;;11.50;5.60;;;;;;;7.54;100.00;97090.63;4974688;28;20042;-72
2022/05/01 02:49:42;;;;;;;8.93;5.40;;;;;;;7.36;100.00;97082.53;4961215;28;20042;-73
2022/05/01 02:52:09;;;;;;;7.30;4.80;;;;;;;7.10;100.00;97091.47;4959752;28;20039;-74
2022/05/01 02:54:35;;;;;;;8.52;5.05;;;;;;;6.96;100.00;97085.38;4962275;28;20034;-73
2022/05/01 02:57:00;;;;;;;9.52;5.50;;;;;;;6.78;100.00;97086.06;4960023;28;20518;-74
2022/05/01 02:59:26;;;;;;;9.77;5.78;;;;;;;6.73;100.00;97090.38;4961130;28;20059;-73
2022/05/01 03:01:52;;;;;;;10.65;4.85;;;;;;;6.74;100.00;97095.47;4961991;28;20063;-73
2022/05/01 03:04:17;;;;;;;8.82;5.35;;;;;;;6.78;100.00;97082.59;4960081;28;20382;-73
2022/05/01 03:06:43;;;;;;;11.82;5.30;;;;;;;6.77;100.00;97083.59;4959287;28;20509;-73
2022/05/01 03:09:09;;;;;;;10.65;5.22;;;;;;;6.63;100.00;97086.28;4960782;28;20039;-74
2022/05/01 03:11:36;;;;;;;8.70;4.90;;;;;;;6.49;100.00;97086.53;4961166;28;20042;-72
2022/05/01 03:14:03;;;;;;;9.23;5.20;;;;;;;6.24;100.00;97081.84;4963522;28;20470;-73
2022/05/01 03:16:28;;;;;;;13.48;5.53;;;;;;;6.21;100.00;97086.75;4964060;28;20045;-73
2022/05/01 03:24:21;;;;;;;10.63;5.40;;;;;;;5.86;100.00;97085.09;4964813;28;20329;-74
2022/05/01 03:26:48;;;;;;;10.65;5.68;;;;;;;5.77;100.00;97085.50;4964263;28;20038;-72
2022/05/01 03:29:17;;;;;;;10.20;5.72;;;;;;;5.85;100.00;97080.81;4963106;28;20384;-73
2022/05/01 03:31:45;;;;;;;9.25;5.18;;;;;;;5.80;100.00;97077.13;4963528;28;20031;-72
2022/05/01 03:34:11;;;;;;;11.13;5.53;;;;;;;5.93;100.00;97085.13;4962590;28;20301;-72
2022/05/01 03:36:36;;;;;;;11.63;6.13;;;;;;;6.03;100.00;97074.91;4964310;28;20503;-73
2022/05/01 03:39:05;;;;;;;9.07;5.50;;;;;;;6.14;100.00;97074.28;4962380;28;20350;-72
2022/05/01 03:41:31;;;;;;;12.73;5.45;;;;;;;6.23;100.00;97077.56;4979072;28;20365;-73
2022/05/01 03:43:56;;;;;;;10.15;5.53;;;;;;;6.29;100.00;97078.56;4963310;28;20041;-74
2022/05/01 03:46:23;;;;;;;11.25;6.22;;;;;;;6.46;100.00;97076.28;4962818;28;20035;-73
2022/05/01 03:48:50;;;;;;;8.00;5.40;;;;;;;6.53;100.00;97069.94;4964609;28;20600;-73
2022/05/01 03:51:16;;;;;;;10.52;5.53;;;;;;;6.50;100.00;97077.53;4977438;28;20035;-73
2022/05/01 03:53:42;;;;;;;10.65;6.03;;;;;;;6.59;100.00;97073.59;4964226;28;20502;-73
2022/05/01 03:56:08;;;;;;;10.90;5.78;;;;;;;6.66;100.00;97077.88;4978038;28;20318;-73
2022/05/01 03:58:34;;;;;;;9.50;5.68;;;;;;;6.76;100.00;97068.66;4962717;28;20055;-74
2022/05/01 04:00:59;;;;;;;12.35;5.60;;;;;;;6.67;100.00;97063.56;4964606;28;20058;-73
2022/05/01 04:03:25;;;;;;;8.88;5.68;;;;;;;6.70;100.00;97059.69;4967572;28;20158;-73
2022/05/01 04:05:51;;;;;;;10.35;5.90;;;;;;;6.79;100.00;97065.59;4963789;28;20089;-73
2022/05/01 04:08:18;;;;;;;9.93;6.30;;;;;;;6.60;100.00;97073.41;4962861;28;20042;-72
2022/05/01 04:10:44;;;;;;;9.90;5.45;;;;;;;6.43;100.00;97074.88;4965385;28;20089;-73
2022/05/01 04:13:12;;;;;;;11.85;6.13;;;;;;;6.28;100.00;97077.75;4962773;28;20592;-73
2022/05/01 04:15:38;;;;;;;11.30;6.53;;;;;;;6.06;100.00;97076.31;4964311;28;20046;-74
2022/05/01 04:18:05;;;;;;;12.52;6.10;;;;;;;5.92;100.00;97080.84;4962831;28;20544;-74
2022/05/01 04:20:32;;;;;;;10.10;6.13;;;;;;;6.01;100.00;97084.13;4966085;28;20465;-75
2022/05/01 04:22:59;;;;;;;10.80;6.25;;;;;;;6.13;100.00;97082.47;4979054;28;20053;-72
2022/05/01 04:25:27;;;;;;;13.73;6.50;;;;;;;6.26;100.00;97085.13;4971231;28;20050;-75
2022/05/01 04:27:58;;;;;;;10.38;5.80;;;;;;;6.37;100.00;97087.13;4978170;28;20050;-74
2022/05/01 04:30:26;;;;;;;8.25;5.65;;;;;;;6.48;100.00;97099.00;4962807;28;20126;-74
2022/05/01 04:32:59;;;;;;;15.15;6.68;;;;;;;6.54;100.00;97087.53;4959132;28;20047;-73
2022/05/01 04:35:28;;;;;;;13.90;6.47;;;;;;;6.60;100.00;97091.19;4964039;28;20469;-75
2022/05/01 04:38:01;;;;;;;17.98;8.40;;;;;;;6.64;100.00;97095.09;4963358;28;20474;-73
2022/05/01 04:40:33;;;;;;;17.40;9.02;;;;;;;6.41;100.00;97082.25;4961858;28;20125;-73
2022/05/01 04:43:03;;;;;;;17.88;7.28;;;;;;;6.54;100.00;97092.88;4978812;28;20417;-74
2022/05/01 04:45:30;;;;;;;10.95;7.47;;;;;;;6.42;100.00;97089.19;4963601;28;20054;-73
2022/05/01 04:47:55;;;;;;;11.75;7.70;;;;;;;6.51;100.00;97081.81;4964378;28;20043;-73
2022/05/01 04:50:20;;;;;;;10.73;6.75;;;;;;;6.41;100.00;97082.25;4962805;28;20058;-74
2022/05/01 04:52:46;;;;;;;10.27;7.05;;;;;;;6.58;100.00;97077.31;4963351;28;20039;-74
2022/05/01 04:55:11;;;;;;;10.75;6.88;;;;;;;6.70;100.00;97081.78;4962088;28;20051;-72
2022/05/01 04:57:39;;;;;;;10.23;6.90;;;;;;;6.81;100.00;97072.31;4962019;28;20181;-73
2022/05/01 05:00:06;;;;;;;11.20;6.72;;;;;;;6.93;100.00;97078.66;4975605;28;20711;-74
2022/05/01 05:02:41;;;;;;;11.45;6.15;;;;;;;7.04;100.00;97081.66;4960500;28;20125;-73
2022/05/01 05:05:12;;;;;;;8.35;6.07;;;;;;;7.12;100.00;97078.75;4977308;28;20038;-73
2022/05/01 05:07:38;;;;;;;10.45;6.43;;;;;;;7.08;100.00;97078.38;4962934;28;20073;-73
2022/05/01 05:10:06;;;;;;;10.10;6.82;;;;;;;7.08;100.00;97086.38;4961490;28;20043;-73
2022/05/01 05:12:32;;;;;;;9.23;5.60;;;;;;;7.16;100.00;97082.63;4972814;28;20457;-73
2022/05/01 05:15:00;;;;;;;10.73;6.35;;;;;;;7.18;100.00;97078.75;4961652;28;20050;-73
2022/05/01 05:17:27;;;;;;;10.45;6.40;;;;;;;7.35;100.00;97088.91;4960191;28;20045;-74
2022/05/01 05:19:54;;;;;;;13.30;7.28;;;;;;;7.38;100.00;97083.13;4975371;28;20039;-74
2022/05/01 05:22:20;;;;;;;12.55;6.95;;;;;;;7.20;100.00;97089.16;4961197;28;20038;-74
2022/05/01 05:24:46;;;;;;;16.30;7.57;;;;;;;7.07;100.00;97086.56;4961283;28;20039;-73
2022/05/01 05:27:12;;;;;;;10.05;6.95;;;;;;;6.96;100.00;97096.84;4961045;28;20129;-73
2022/05/01 05:29:38;;;;;;;9.70;6.50;;;;;;;6.90;100.00;97089.69;4960162;28;20038;-73
2022/05/01 05:32:05;;;;;;;9.77;6.30;;;;;;;7.07;100.00;97100.69;4960888;28;20055;-73
2022/05/01 05:34:31;;;;;;;12.75;6.65;;;;;;;7.18;100.00;97097.38;4976976;28;20043;-74
2022/05/01 05:36:56;;;;;;;9.57;6.32;;;;;;;7.13;100.00;97096.38;4960246;28;20104;-73
2022/05/01 05:39:23;;;;;;;8.85;6.43;;;;;;;7.10;100.00;97096.81;4961320;28;20046;-74
2022/05/01 05:41:49;;;;;;;14.68;6.82;;;;;;;7.00;100.00;97083.91;4960425;28;20486;-72
2022/05/01 05:44:14;;;;;;;12.45;6.03;;;;;;;6.89;100.00;97089.91;4976551;28;20045;-73
2022/05/01 05:46:40;;;;;;;10.10;6.35;;;;;;;6.85;100.00;97084.19;4960842;28;20031;-73
2022/05/01 05:49:06;;;;;;;9.90;6.18;;;;;;;7.11;100.00;97101.91;4960554;28;20097;-73
2022/05/01 05:51:31;;;;;;;9.80;6.03;;;;;;;7.25;100.00;97089.38;4962233;28;20046;-73
2022/05/01 05:53:57;;;;;;;8.38;5.68;;;;;;;7.42;100.00;97087.84;4962102;28;20046;-73
2022/05/01 05:56:23;;;;;;;8.65;6.03;;;;;;;7.50;100.00;97098.25;4959842;28;20324;-73
2022/05/01 05:58:49;;;;;;;10.70;5.93;;;;;;;7.63;100.00;97088.56;4976906;28;20436;-72
2022/05/01 06:01:15;;;;;;;11.10;5.68;;;;;;;7.74;100.00;97093.19;4959954;28;20101;-74
2022/05/01 06:03:40;;;;;;;9.90;5.80;;;;;;;7.82;100.00;97092.94;4959578;28;20035;-74
2022/05/01 06:06:06;;;;;;;11.02;5.75;;;;;;;7.88;100.00;97096.59;4960571;28;20047;-74
2022/05/01 06:08:32;;;;;;;9.88;5.72;;;;;;;7.88;100.00;97096.59;4976435;28;20046;-73
2022/05/01 06:10:58;;;;;;;9.68;5.90;;;;;;;7.89;100.00;97100.88;4958784;28;20552;-73
2022/05/01 06:13:23;;;;;;;10.05;5.80;;;;;;;7.84;100.00;97106.84;4959629;28;20039;-73
2022/05/01 06:15:49;;;;;;;16.27;6.07;;;;;;;7.79;100.00;97101.38;4960074;28;20049;-72
2022/05/01 06:18:15;;;;;;;10.95;5.70;;;;;;;7.74;100.00;97098.50;4272366;28;10000279;-74
2022/05/01 06:20:41;;;;;;;10.73;5.93;;;;;;;7.67;100.00;97098.56;4959013;28;20133;-73
2022/05/01 06:23:07;;;;;;;11.73;5.90;;;;;;;7.58;100.00;97093.69;4973239;28;20062;-74
2022/05/01 06:25:36;;;;;;;9.52;5.38;;;;;;;7.49;100.00;97099.28;4973502;28;20065;-72
2022/05/01 06:28:01;;;;;;;9.60;5.80;;;;;;;7.44;100.00;97104.41;4960846;28;20053;-74
2022/05/01 06:30:27;;;;;;;15.05;6.10;;;;;;;7.44;100.00;97092.94;4956360;28;20038;-73
2022/05/01 06:32:52;;;;;;;9.52;5.82;;;;;;;7.48;100.00;97097.66;4960203;28;20034;-72
2022/05/01 06:35:20;;;;;;;11.63;6.00;;;;;;;7.54;100.00;97095.94;4958973;28;20113;-72
2022/05/01 06:37:46;;;;;;;10.18;5.57;;;;;;;7.69;100.00;97104.47;4959906;28;20058;-73
2022/05/01 06:40:12;;;;;;;7.72;5.80;;;;;;;7.83;100.00;97102.56;4959004;28;20058;-72
2022/05/01 06:42:38;;;;;;;10.70;6.00;;;;;;;8.04;100.00;97104.06;4960466;28;20047;-73
2022/05/01 06:45:04;;;;;;;12.48;6.00;;;;;;;8.22;100.00;97097.97;4958712;28;20053;-72
2022/05/01 06:47:30;;;;;;;10.88;6.22;;;;;;;8.40;100.00;97100.69;4962565;28;20093;-72
2022/05/01 06:49:56;;;;;;;8.43;5.45;;;;;;;8.52;100.00;97104.28;4962991;28;20150;-73
2022/05/01 06:52:23;;;;;;;8.65;5.63;;;;;;;8.65;100.00;97098.84;4964071;28;20042;-74
2022/05/01 06:54:55;;;;;;;9.00;5.38;;;;;;;8.72;100.00;97101.44;4963139;28;20434;-73
2022/05/01 06:57:21;;;;;;;10.10;5.78;;;;;;;8.80;100.00;97103.00;4962366;28;20057;-73
2022/05/01 06:59:47;;;;;;;10.13;5.85;;;;;;;8.83;100.00;97108.69;4963420;28;20117;-72
2022/05/01 07:02:16;;;;;;;14.30;5.85;;;;;;;8.88;100.00;97097.38;4961934;28;20413;-74
2022/05/01 07:04:42;;;;;;;11.13;6.35;;;;;;;8.93;100.00;97109.00;4963521;28;20045;-73
2022/05/01 07:07:07;;;;;;;12.43;6.10;;;;;;;8.97;100.00;97098.72;4962780;28;20034;-73
2022/05/01 07:09:35;;;;;;;10.82;6.07;;;;;;;9.10;100.00;97106.53;4966469;28;20046;-72
2022/05/01 07:12:01;;;;;;;10.18;6.35;;;;;;;9.23;100.00;97099.44;4962876;28;20049;-74
2022/05/01 07:14:27;;;;;;;10.32;6.20;;;;;;;9.37;100.00;97098.22;4960675;28;20057;-74
2022/05/01 07:16:52;;;;;;;13.38;5.72;;;;;;;9.54;100.00;97109.91;4963779;28;20047;-74
2022/05/01 07:19:17;;;;;;;15.00;6.72;;;;;;;9.66;100.00;97102.78;4960469;28;20063;-73
2022/05/01 07:21:43;;;;;;;13.60;6.05;;;;;;;9.79;100.00;97107.09;4962982;28;20391;-73
2022/05/01 07:24:08;;;;;;;9.10;5.63;;;;;;;9.95;100.00;97113.66;4961895;28;20150;-72
2022/05/01 07:26:34;;;;;;;10.18;5.57;;;;;;;10.09;100.00;97112.41;4964708;28;20126;-73
2022/05/01 07:29:00;;;;;;;9.30;6.53;;;;;;;10.22;100.00;97112.25;4961067;28;20090;-73
2022/05/01 07:31:26;;;;;;;10.93;5.50;;;;;;;10.36;100.00;97109.38;4961764;28;20157;-74
2022/05/01 07:33:52;;;;;;;9.73;5.45;;;;;;;10.40;100.00;97107.84;4974469;28;20105;-72
2022/05/01 07:36:19;;;;;;;9.98;5.05;;;;;;;10.54;100.00;97103.91;4961960;28;20568;-73
2022/05/01 07:38:49;;;;;;;11.18;5.22;;;;;;;10.74;100.00;97098.19;4962538;28;20049;-74
2022/05/01 07:41:16;;;;;;;8.13;5.22;;;;;;;10.93;100.00;97104.25;4976546;28;20042;-74
2022/05/01 07:43:43;;;;;;;8.18;5.05;;;;;;;11.05;100.00;97100.50;4960630;28;20781;-73
2022/05/01 07:46:09;;;;;;;12.48;6.03;;;;;;;11.23;100.00;97094.19;4976538;28;20046;-73
2022/05/01 07:48:34;;;;;;;10.50;4.70;;;;;;;11.35;100.00;97100.31;4960604;28;20460;-72
2022/05/01 07:51:00;;;;;;;9.98;5.20;;;;;;;11.15;100.00;97097.22;4963291;28;20081;-73
2022/05/01 07:53:25;;;;;;;10.98;5.85;;;;;;;11.04;100.00;97092.69;4962578;28;20445;-72
2022/05/01 07:55:51;;;;;;;9.50;4.80;;;;;;;11.41;100.00;97094.00;4962282;28;20502;-73
2022/05/01 07:58:19;;;;;;;11.48;5.25;;;;;;;11.48;100.00;97095.72;4959759;28;20167;-73
2022/05/01 08:00:45;;;;;;;7.75;4.78;;;;;;;11.62;100.00;97095.22;4961544;28;20204;-73
2022/05/01 08:05:54;;;;;;;10.13;5.25;;;;;;;12.04;100.00;97097.59;4963297;28;20042;-72
2022/05/01 08:08:20;;;;;;;6.72;4.38;;;;;;;11.92;100.00;97099.53;4960648;28;20409;-75
2022/05/01 08:10:45;;;;;;;7.35;4.32;;;;;;;11.81;100.00;97103.06;4961938;28;20046;-73
2022/05/01 08:13:11;;;;;;;9.82;4.00;;;;;;;11.84;100.00;97094.56;4961663;28;20117;-74
2022/05/01 08:15:36;;;;;;;6.57;4.15;;;;;;;11.78;100.00;97106.22;4960410;28;20344;-72
2022/05/01 08:21:05;;;;;;;8.80;4.40;;;;;;;11.52;100.00;97100.38;4940558;28;20471;-73
2022/05/01 08:23:31;;;;;;;6.90;4.35;;;;;;;11.32;100.00;97099.97;4955630;28;20042;-72
2022/05/01 08:26:02;;;;;;;7.60;4.22;;;;;;;11.46;100.00;97100.53;4961992;28;20035;-74
2022/05/01 08:28:31;;;;;;;;;;;;;;;11.14;100.00;97109.00;4961123;28;20053;-73
2022/05/01 08:30:58;;;;;;;8.73;4.20;;;;;;;11.00;100.00;97102.25;4961467;28;19929;-72
2022/05/01 08:33:24;;;;;;;8.25;3.92;;;;;;;10.83;100.00;97105.66;4959177;28;20261;-73
2022/05/01 08:35:50;;;;;;;9.05;4.70;;;;;;;11.25;100.00;97094.75;4956950;28;20053;-72
2022/05/01 08:38:16;;;;;;;7.40;3.97;;;;;;;11.21;100.00;97101.63;4955090;28;20241;-73
2022/05/01 08:40:46;;;;;;;6.78;4.68;;;;;;;11.24;100.00;97103.03;4975601;28;20406;-73
2022/05/01 08:43:17;;;;;;;9.88;5.45;;;;;;;11.12;100.00;97105.72;4960520;28;20620;-74
2022/05/01 08:46:13;;;;;;;8.00;4.63;;;;;;;11.53;100.00;97102.00;4959590;28;20043;-73
2022/05/01 08:48:53;;;;;;;10.15;4.60;;;;;;;11.60;100.00;97096.50;4959266;28;20077;-72
2022/05/01 08:51:21;;;;;;;8.52;4.38;;;;;;;11.61;100.00;97106.19;4959072;28;20533;-74
2022/05/01 08:53:48;;;;;;;6.80;4.53;;;;;;;11.53;100.00;97104.69;4961252;28;20039;-74
2022/05/01 08:56:15;;;;;;;7.53;4.05;;;;;;;11.92;100.00;97102.22;4960083;28;20038;-72
2022/05/01 08:58:41;;;;;;;7.72;4.53;;;;;;;12.12;100.00;97099.88;4960711;28;20046;-72
2022/05/01 09:01:11;;;;;;;9.52;4.50;;;;;;;12.61;100.00;97097.47;4964068;28;20088;-73
2022/05/01 09:03:39;;;;;;;8.30;4.30;;;;;;;12.67;100.00;97090.28;4960732;28;20066;-73
2022/05/01 09:06:05;;;;;;;9.25;4.57;;;;;;;12.72;100.00;97098.41;4963211;28;20047;-73
2022/05/01 09:08:31;;;;;;;9.52;4.32;;;;;;;12.64;100.00;97093.47;4958457;28;20085;-72
2022/05/01 09:10:56;;;;;;;9.38;5.03;;;;;;;12.61;100.00;97093.97;4963018;28;20129;-73
2022/05/01 09:13:25;;;;;;;8.15;5.07;;;;;;;13.27;100.00;97086.81;4961865;28;20053;-72
2022/05/01 09:15:52;;;;;;;10.68;4.60;;;;;;;13.33;100.00;97089.34;4962856;28;20153;-73
2022/05/01 09:18:19;;;;;;;7.53;4.32;;;;;;;13.58;100.00;97091.50;4960562;28;20042;-75
2022/05/01 09:21:05;;;;;;;13.40;4.95;;;;;;;14.12;98.67;97091.50;4960933;28;20050;-72
2022/05/01 09:23:38;;;;;;;9.65;4.75;;;;;;;13.99;96.25;97091.91;4957450;28;20137;-73
2022/05/01 09:26:05;;;;;;;8.70;4.63;;;;;;;13.95;94.42;97088.13;4953661;28;20047;-72
2022/05/01 09:28:30;;;;;;;9.70;4.43;;;;;;;13.92;96.91;97091.31;4961767;28;20041;-75
2022/05/01 09:30:56;;;;;;;7.72;4.32;;;;;;;13.72;99.62;97096.50;4960955;28;20086;-72
2022/05/01 09:33:21;;;;;;;8.32;4.70;;;;;;;14.03;94.29;97094.91;4962401;28;20146;-73
2022/05/01 09:35:48;;;;;;;11.00;4.53;;;;;;;13.72;98.50;97097.31;4962742;28;20075;-75
2022/05/01 09:38:17;;;;;;;9.30;4.28;;;;;;;13.65;98.67;97086.75;4961314;28;20512;-72
2022/05/01 09:40:45;;;;;;;9.82;4.63;;;;;;;14.16;98.36;97092.63;4961091;28;20077;-73
2022/05/01 09:43:34;;;;;;;8.85;4.63;;;;;;;14.58;96.39;97088.41;4960162;28;20070;-74
2022/05/01 09:46:19;;;;;;;7.22;4.50;;;;;;;15.07;89.81;97088.97;4975418;28;20051;-72
2022/05/01 09:49:01;;;;;;;10.77;5.07;;;;;;;14.75;91.05;97094.44;4961683;28;20341;-73
2022/05/01 09:51:32;;;;;;;8.80;4.45;;;;;;;14.65;90.93;97087.13;4962388;28;20039;-72
2022/05/01 09:53:59;;;;;;;6.83;4.03;;;;;;;14.26;92.67;97085.72;4959881;28;20058;-75
2022/05/01 09:56:25;;;;;;;9.10;4.38;;;;;;;14.34;93.15;97091.44;4961834;28;20282;-73
2022/05/01 09:59:02;;;;;;;8.10;4.50;;;;;;;14.01;94.41;97095.19;4961089;28;20042;-74
2022/05/01 10:01:29;;;;;;;14.35;4.78;;;;;;;14.13;98.45;97089.63;4959466;28;20852;-72
2022/05/01 10:03:57;;;;;;;8.77;4.15;;;;;;;14.63;95.06;97080.34;4963663;28;20070;-75
2022/05/01 10:06:24;;;;;;;8.20;4.07;;;;;;;14.98;92.41;97090.53;4974957;28;20042;-73
2022/05/01 10:08:49;;;;;;;7.78;3.97;;;;;;;15.13;92.84;97079.03;4962215;28;20045;-73
2022/05/01 10:11:17;;;;;;;9.90;4.32;;;;;;;15.18;91.93;97077.19;4963158;28;20502;-74
2022/05/01 10:13:44;;;;;;;8.38;4.50;;;;;;;15.53;88.14;97073.81;4962011;28;20035;-75
2022/05/01 10:16:11;;;;;;;7.72;4.38;;;;;;;16.25;84.36;97066.66;4958843;28;20042;-72
2022/05/01 10:18:38;;;;;;;11.77;4.45;;;;;;;16.87;80.14;97072.84;4959563;28;20510;-74
2022/05/01 10:21:05;;;;;;;8.05;4.50;;;;;;;16.62;82.58;97068.28;4959607;28;20046;-74
2022/05/01 10:23:32;;;;;;;9.70;4.68;;;;;;;16.54;78.53;97082.34;4966890;28;20291;-73
2022/05/01 10:26:16;;;;;;;8.88;4.35;;;;;;;16.61;78.19;97072.88;4934282;28;20077;-75
2022/05/01 10:28:50;;;;;;;10.27;4.13;;;;;;;15.97;86.68;97073.41;4966322;28;20109;-73
2022/05/01 10:34:51;;;;;;;9.30;4.68;;;;;;;15.66;85.05;97071.72;4968707;28;20042;-74
2022/05/01 10:37:55;;;;;;;10.32;4.53;;;;;;;15.74;86.41;97077.41;4964481;28;20124;-72
2022/05/01 10:40:21;;;;;;;10.43;5.13;;;;;;;15.23;86.97;97066.41;4259386;28;10000507;-72
2022/05/01 10:42:48;;;;;;;9.23;5.30;;;;;;;14.77;91.83;97073.44;4965833;28;20391;-73
2022/05/01 10:45:22;;;;;;;10.05;5.00;;;;;;;14.71;94.06;97069.13;4965873;28;20510;-72
2022/05/01 10:47:50;;;;;;;9.90;4.80;;;;;;;14.81;91.21;97063.78;4965442;28;20050;-74
2022/05/01 10:50:21;;;;;;;13.43;5.75;;;;;;;15.37;87.56;97057.84;4964178;28;20061;-75
2022/05/01 10:53:11;;;;;;;12.07;5.10;;;;;;;15.27;86.79;97054.03;4965354;28;20397;-74
2022/05/01 10:55:50;;;;;;;9.80;4.93;;;;;;;16.07;88.16;97064.50;4966649;28;20049;-73
2022/05/01 10:58:26;;;;;;;11.35;6.00;;;;;;;16.60;80.46;97049.66;4963785;28;20141;-72
2022/05/01 11:00:56;;;;;;;10.00;4.63;;;;;;;17.06;80.54;97046.88;4961517;28;20067;-74
2022/05/01 11:03:30;;;;;;;9.65;5.15;;;;;;;17.24;74.26;97040.03;4964267;28;20378;-74
2022/05/01 11:06:01;;;;;;;10.45;5.25;;;;;;;16.50;76.77;97051.53;4966856;28;20049;-73
2022/05/01 11:08:30;;;;;;;10.18;5.00;;;;;;;16.83;78.18;97042.88;4965148;28;20054;-73
2022/05/01 11:10:59;;;;;;;12.57;4.78;;;;;;;17.35;79.29;97038.09;4966939;28;20046;-74
2022/05/01 11:13:29;;;;;;;8.82;4.88;;;;;;;18.05;69.05;97038.78;4969069;28;20053;-73
2022/05/01 11:15:55;;;;;;;9.90;5.28;;;;;;;17.65;75.28;97037.13;4967042;28;20042;-75
2022/05/01 11:18:34;;;;;;;9.13;4.97;;;;;;;17.39;71.62;97034.56;4966236;28;20055;-74
2022/05/01 11:21:21;;;;;;;9.57;5.20;;;;;;;16.88;76.01;97026.63;4967309;28;20461;-72
2022/05/01 11:23:58;;;;;;;13.18;5.40;;;;;;;16.78;75.90;97023.97;4965542;28;20039;-73
2022/05/01 11:26:23;;;;;;;9.60;5.28;;;;;;;16.40;76.77;97028.84;4940078;28;20442;-73
2022/05/01 11:28:54;;;;;;;11.02;5.53;;;;;;;15.44;83.41;97031.44;4967303;28;20093;-74
2022/05/01 11:31:37;;;;;;;8.57;5.13;;;;;;;15.33;86.31;97027.91;4963538;28;20764;-74
2022/05/01 11:34:24;;;;;;;8.60;5.18;;;;;;;15.21;91.82;97028.13;4963156;28;20549;-73
2022/05/01 11:36:54;;;;;;;9.73;5.47;;;;;;;15.45;87.15;97024.97;4964915;28;20039;-72
2022/05/01 11:39:43;;;;;;;8.80;5.50;;;;;;;15.04;89.16;97027.53;4962362;28;20068;-74
2022/05/01 11:42:33;;;;;;;10.98;5.57;;;;;;;15.32;87.95;97028.97;4940661;28;20050;-72
2022/05/01 11:45:00;;;;;;;14.65;5.30;;;;;;;15.56;84.12;97021.22;4963022;28;20077;-73
2022/05/01 11:47:32;;;;;;;10.32;5.43;;;;;;;16.12;86.68;97014.03;4962870;28;20034;-73
2022/05/01 11:49:57;;;;;;;12.55;5.95;;;;;;;15.92;84.11;97022.13;4965062;28;20136;-74
2022/05/01 11:52:24;;;;;;;11.10;6.05;;;;;;;15.84;84.16;97009.97;4963528;28;20389;-74
2022/05/01 11:54:52;;;;;;;9.43;5.45;;;;;;;15.37;87.46;96998.53;4961325;28;20651;-74